PrentiSS Brown — WDE6848 — position and weather

sailwx.info

Track history (hours):
 
Tides and Currents Weather Stations Pressure Air Temp Water Temp Dewpoint Dewpoint Depression Visibility Wind Speed Wind Dir Waves Ship Positions

PrentiSS Brown

Owner: Port City Marine Services Inc, Muskegon, MI. More information available from US FCC via Universal Licensing System and Coast Guard Vessel Documentation Center.

Last reported at 2016-May-24 17:33 UTC. Time now 2016-May-26 10:45 UTC.
Position N 45°41' W 084°20'.

; draft 5.3 m.

Type: Other ship. MMSI: 366922280.

Date/timePositionNaut miles runAvg speedWind from/ knotsBaromVisibWave heightAir tempDewpointWater temp
2016-May-24 17:33N 45°41' W 084°20'8 8.5
2016-May-24 16:33N 45°44' W 084°32'9 8.7
2016-May-24 15:33N 45°49' W 084°42'9 8.7
2016-May-24 14:33N 45°49' W 084°55'9 8.6
2016-May-24 13:33N 45°50' W 085°07'8 8.1
2016-May-24 12:33N 45°43' W 085°11'9 8.6
2016-May-24 11:33N 45°34' W 085°16'9 8.7
2016-May-24 10:33N 45°26' W 085°17'7 6.7
2016-May-24 09:33N 45°19' W 085°17'0 0.3
2016-May-24 08:33N 45°19' W 085°18'0 0.0
2016-May-24 07:33N 45°19' W 085°18'0 0.0
2016-May-24 06:33N 45°19' W 085°18'0 0.0
2016-May-24 05:33N 45°19' W 085°18'0 0.0
2016-May-24 04:33N 45°19' W 085°18'2 1.9
2016-May-24 03:33N 45°20' W 085°20'9 9.2
2016-May-24 02:33N 45°16' W 085°32'9 9.1
2016-May-24 01:33N 45°10' W 085°43'9 9.2
2016-May-24 00:33N 45°04' W 085°52'9 9.2
2016-May-23 23:33N 44°58' W 086°02'  
2016-May-20 16:33N 44°56' W 086°09'9 8.5
2016-May-20 15:33N 45°00' W 085°58'8 8.4
2016-May-20 14:33N 45°06' W 085°50'9 8.6
2016-May-20 13:33N 45°12' W 085°41'8 8.5
2016-May-20 12:33N 45°16' W 085°31'9 8.5
2016-May-20 11:33N 45°20' W 085°20'2 1.7
2016-May-20 10:33N 45°19' W 085°18'0 0.0
2016-May-20 09:33N 45°19' W 085°18'0 0.0
2016-May-20 08:33N 45°19' W 085°18'0 0.0
2016-May-20 07:33N 45°19' W 085°18'0 0.0
2016-May-20 06:33N 45°19' W 085°18'0 0.0
2016-May-20 05:33N 45°19' W 085°18'3 3.4
2016-May-20 04:33N 45°19' W 085°22'9 9.3
2016-May-20 03:33N 45°15' W 085°34'9 9.3
2016-May-20 02:33N 45°09' W 085°45'9 9.3
2016-May-20 01:33N 45°02' W 085°54'9 9.2
2016-May-20 00:33N 44°57' W 086°05'  
2016-May-17 02:30N 44°58' W 086°04'11 8.4
2016-May-17 01:15N 45°04' W 085°52'6 8.5
2016-May-17 00:33N 45°08' W 085°46'8 8.5
2016-May-16 23:33N 45°14' W 085°37'9 8.5
2016-May-16 22:33N 45°18' W 085°26'7 6.6
2016-May-16 21:33N 45°19' W 085°17'0 0.4
2016-May-16 20:33N 45°19' W 085°18'0 0.0
2016-May-16 19:33N 45°19' W 085°18'0 0.0
2016-May-16 18:33N 45°19' W 085°18'0 0.0
2016-May-16 17:33N 45°19' W 085°18'0 0.0
2016-May-16 16:33N 45°19' W 085°18'0 0.0
2016-May-16 15:33N 45°19' W 085°18'1 0.7
2016-May-16 14:33N 45°20' W 085°17'9 8.8
2016-May-16 13:33N 45°16' W 085°29'9 9.4
2016-May-16 12:33N 45°12' W 085°40'10 9.4
2016-May-16 11:32N 45°05' W 085°50'  
Track history (hours):
 
Tides and Currents Weather Stations Pressure Air Temp Water Temp Dewpoint Dewpoint Depression Visibility Wind Speed Wind Dir Waves Ship Positions

PrentiSS Brown

Owner: Port City Marine Services Inc, Muskegon, MI. More information available from US FCC via Universal Licensing System and Coast Guard Vessel Documentation Center.

Last reported at 2016-May-24 17:33 UTC. Time now 2016-May-26 10:45 UTC.
Position N 45°41' W 084°20'.

; draft 5.3 m.

Type: Other ship. MMSI: 366922280.

Date/timePositionNaut miles runAvg speedWind from/ knotsBaromVisibWave heightAir tempDewpointWater temp
2016-May-24 17:33N 45°41' W 084°20'8 8.5
2016-May-24 16:33N 45°44' W 084°32'9 8.7
2016-May-24 15:33N 45°49' W 084°42'9 8.7
2016-May-24 14:33N 45°49' W 084°55'9 8.6
2016-May-24 13:33N 45°50' W 085°07'8 8.1
2016-May-24 12:33N 45°43' W 085°11'9 8.6
2016-May-24 11:33N 45°34' W 085°16'9 8.7
2016-May-24 10:33N 45°26' W 085°17'7 6.7
2016-May-24 09:33N 45°19' W 085°17'0 0.3
2016-May-24 08:33N 45°19' W 085°18'0 0.0
2016-May-24 07:33N 45°19' W 085°18'0 0.0
2016-May-24 06:33N 45°19' W 085°18'0 0.0
2016-May-24 05:33N 45°19' W 085°18'0 0.0
2016-May-24 04:33N 45°19' W 085°18'2 1.9
2016-May-24 03:33N 45°20' W 085°20'9 9.2
2016-May-24 02:33N 45°16' W 085°32'9 9.1
2016-May-24 01:33N 45°10' W 085°43'9 9.2
2016-May-24 00:33N 45°04' W 085°52'9 9.2
2016-May-23 23:33N 44°58' W 086°02'  
2016-May-20 16:33N 44°56' W 086°09'9 8.5
2016-May-20 15:33N 45°00' W 085°58'8 8.4
2016-May-20 14:33N 45°06' W 085°50'9 8.6
2016-May-20 13:33N 45°12' W 085°41'8 8.5
2016-May-20 12:33N 45°16' W 085°31'9 8.5
2016-May-20 11:33N 45°20' W 085°20'2 1.7
2016-May-20 10:33N 45°19' W 085°18'0 0.0
2016-May-20 09:33N 45°19' W 085°18'0 0.0
2016-May-20 08:33N 45°19' W 085°18'0 0.0
2016-May-20 07:33N 45°19' W 085°18'0 0.0
2016-May-20 06:33N 45°19' W 085°18'0 0.0
2016-May-20 05:33N 45°19' W 085°18'3 3.4
2016-May-20 04:33N 45°19' W 085°22'9 9.3
2016-May-20 03:33N 45°15' W 085°34'9 9.3
2016-May-20 02:33N 45°09' W 085°45'9 9.3
2016-May-20 01:33N 45°02' W 085°54'9 9.2
2016-May-20 00:33N 44°57' W 086°05'  
2016-May-17 02:30N 44°58' W 086°04'11 8.4
2016-May-17 01:15N 45°04' W 085°52'6 8.5
2016-May-17 00:33N 45°08' W 085°46'8 8.5
2016-May-16 23:33N 45°14' W 085°37'9 8.5
2016-May-16 22:33N 45°18' W 085°26'7 6.6
2016-May-16 21:33N 45°19' W 085°17'0 0.4
2016-May-16 20:33N 45°19' W 085°18'0 0.0
2016-May-16 19:33N 45°19' W 085°18'0 0.0
2016-May-16 18:33N 45°19' W 085°18'0 0.0
2016-May-16 17:33N 45°19' W 085°18'0 0.0
2016-May-16 16:33N 45°19' W 085°18'0 0.0
2016-May-16 15:33N 45°19' W 085°18'1 0.7
2016-May-16 14:33N 45°20' W 085°17'9 8.8
2016-May-16 13:33N 45°16' W 085°29'9 9.4
2016-May-16 12:33N 45°12' W 085°40'10 9.4
2016-May-16 11:32N 45°05' W 085°50'  

Dump ship's entire track history